Time;durP1;ratioP1;P1;durP2;ratioP2;P2;SDS_P1;SDS_P2;PMS_P1;PMS_P2;Temp;Humidity;BMP_temperature;BMP_pressure;BME280_temperature;BME280_humidity;BME280_pressure;Samples;Min_cycle;Max_cycle;Signal;HPM_P1;HPM_P2
2022/02/23 00:01:17;;;;;;;16.00;4.40;;;6.50;99.90;;;;;;6006142;24;20424;-87
2022/02/23 00:03:45;;;;;;;13.60;3.70;;;6.50;99.90;;;;;;6001686;23;20457;-81
2022/02/23 00:06:14;;;;;;;19.33;4.40;;;6.50;99.90;;;;;;5970489;24;20500;-83
2022/02/23 00:08:44;;;;;;;25.97;4.70;;;6.50;99.90;;;;;;6002333;24;20419;-83
2022/02/23 00:11:12;;;;;;;16.67;4.90;;;6.50;99.90;;;;;;5995435;24;20997;-84
2022/02/23 00:13:49;;;;;;;17.20;4.40;;;6.50;99.90;;;;;;5971814;24;20732;-85
2022/02/23 00:23:45;;;;;;;22.10;6.13;;;6.60;99.90;;;;;;5981310;23;20446;-83
2022/02/23 00:26:20;;;;;;;17.00;4.57;;;6.60;99.90;;;;;;5999992;24;20803;-84
2022/02/23 00:28:47;;;;;;;14.60;3.97;;;6.60;99.90;;;;;;6006102;24;20577;-83
2022/02/23 00:31:18;;;;;;;22.37;4.57;;;6.60;99.90;;;;;;6006682;24;20469;-81
2022/02/23 00:33:46;;;;;;;14.67;4.70;;;6.70;99.90;;;;;;6000898;23;20683;-84
2022/02/23 00:36:15;;;;;;;20.93;5.47;;;6.60;99.90;;;;;;6005788;24;20445;-85
2022/02/23 00:38:54;;;;;;;20.07;4.50;;;6.60;99.90;;;;;;6007386;24;20435;-81
2022/02/23 00:41:22;;;;;;;20.40;4.60;;;6.70;99.90;;;;;;6006362;24;20418;-84
2022/02/23 00:43:50;;;;;;;16.67;4.80;;;6.70;99.90;;;;;;6001919;23;20459;-82
2022/02/23 00:46:18;;;;;;;16.67;4.80;;;6.70;99.90;;;;;;6000332;24;20430;-84
2022/02/23 00:48:49;;;;;;;18.57;5.13;;;6.70;99.90;;;;;;6006967;24;20763;-87
2022/02/23 00:51:18;;;;;;;21.30;4.70;;;6.70;99.90;;;;;;6005997;24;20447;-84
2022/02/23 00:53:45;;;;;;;17.27;5.93;;;6.70;99.90;;;;;;5970148;24;20518;-84
2022/02/23 00:56:17;;;;;;;15.30;4.50;;;6.70;99.90;;;;;;6007436;24;21042;-82
2022/02/23 00:58:45;;;;;;;23.60;7.60;;;6.70;99.90;;;;;;6006701;24;20407;-86
2022/02/23 01:01:13;;;;;;;15.60;4.80;;;6.70;99.90;;;;;;6007132;24;20490;-85
2022/02/23 01:03:41;;;;;;;23.60;5.57;;;6.80;99.90;;;;;;5996131;23;20733;-82
2022/02/23 01:06:12;;;;;;;19.00;4.40;;;6.80;99.90;;;;;;5996432;24;20403;-82
2022/02/23 01:08:40;;;;;;;23.27;5.00;;;6.80;99.90;;;;;;6008269;24;20420;-88
2022/02/23 01:11:08;;;;;;;20.97;5.70;;;6.80;99.90;;;;;;6007921;24;20439;-83
2022/02/23 01:13:37;;;;;;;21.83;5.00;;;6.80;99.90;;;;;;5998211;23;20868;-82
2022/02/23 01:16:06;;;;;;;20.67;4.20;;;6.80;99.90;;;;;;5969835;24;20465;-84
2022/02/23 01:18:34;;;;;;;19.10;4.67;;;6.80;99.90;;;;;;6008999;24;20418;-84
2022/02/23 01:21:02;;;;;;;20.17;4.80;;;6.90;99.90;;;;;;5997063;24;20434;-82
2022/02/23 01:23:30;;;;;;;19.60;4.53;;;6.90;99.90;;;;;;5992706;23;20574;-82
2022/02/23 01:26:00;;;;;;;30.50;5.43;;;7.00;99.90;;;;;;5995879;24;20466;-82
2022/02/23 01:28:28;;;;;;;14.07;4.60;;;6.90;99.90;;;;;;5992770;24;20418;-87
2022/02/23 01:30:59;;;;;;;23.30;5.60;;;7.00;99.90;;;;;;6004333;24;20438;-88
2022/02/23 01:33:27;;;;;;;16.63;4.17;;;7.00;99.90;;;;;;6003999;23;20536;-85
2022/02/23 01:35:55;;;;;;;14.90;4.67;;;6.90;99.90;;;;;;6005599;24;20428;-84
2022/02/23 01:38:23;;;;;;;17.80;4.30;;;6.90;99.90;;;;;;6003715;24;20418;-83
2022/02/23 01:40:51;;;;;;;15.60;3.73;;;7.00;99.90;;;;;;6004974;24;20592;-82
2022/02/23 01:43:19;;;;;;;16.93;4.40;;;6.90;99.90;;;;;;5988293;23;20463;-85
2022/02/23 01:45:47;;;;;;;22.13;5.77;;;6.90;99.90;;;;;;6005325;23;20411;-87
2022/02/23 01:48:17;;;;;;;13.63;4.00;;;6.90;99.90;;;;;;6011910;23;20413;-81
2022/02/23 01:50:45;;;;;;;16.17;4.30;;;6.90;99.90;;;;;;5998571;24;20438;-83
2022/02/23 01:53:14;;;;;;;18.77;6.60;;;7.00;99.90;;;;;;5968263;24;20526;-85
2022/02/23 01:55:42;;;;;;;22.57;5.50;;;7.00;99.90;;;;;;6004714;24;20486;-85
2022/02/23 01:58:10;;;;;;;13.70;4.27;;;7.00;99.90;;;;;;6004919;24;20418;-82
2022/02/23 02:00:38;;;;;;;18.30;4.97;;;7.00;99.90;;;;;;6008517;23;20423;-82
2022/02/23 02:03:07;;;;;;;10.53;4.00;;;7.00;99.90;;;;;;5988548;23;20479;-86
2022/02/23 02:05:36;;;;;;;18.60;5.40;;;6.90;99.90;;;;;;5986781;24;20443;-85
2022/02/23 02:08:04;;;;;;;16.50;4.03;;;6.90;99.90;;;;;;6004603;24;20575;-84
2022/02/23 02:10:32;;;;;;;16.83;4.37;;;6.90;99.90;;;;;;5996153;24;20435;-82
2022/02/23 02:13:00;;;;;;;18.97;4.47;;;6.90;99.90;;;;;;5998340;23;20439;-85
2022/02/23 02:15:28;;;;;;;15.70;3.97;;;6.90;99.90;;;;;;5992017;24;20768;-82
2022/02/23 02:17:56;;;;;;;17.80;4.13;;;6.90;99.90;;;;;;6004785;24;20438;-84
2022/02/23 02:20:24;;;;;;;15.33;4.77;;;6.80;99.90;;;;;;6005280;24;20526;-84
2022/02/23 02:22:54;;;;;;;16.20;3.93;;;6.90;99.90;;;;;;5960023;23;20434;-86
2022/02/23 02:25:22;;;;;;;11.80;3.83;;;6.80;99.90;;;;;;6002514;24;20521;-85
2022/02/23 02:27:50;;;;;;;18.30;3.60;;;6.70;99.90;;;;;;6004987;24;20495;-86
2022/02/23 02:30:18;;;;;;;18.43;4.03;;;6.80;99.90;;;;;;5970941;24;20462;-82
2022/02/23 02:32:48;;;;;;;23.07;4.97;;;6.70;99.90;;;;;;6004844;24;20698;-87
2022/02/23 02:35:19;;;;;;;17.77;4.40;;;6.70;99.90;;;;;;5994227;24;20470;-86
2022/02/23 02:37:47;;;;;;;13.77;4.87;;;6.70;99.90;;;;;;6005889;24;20430;-83
2022/02/23 02:40:16;;;;;;;11.40;3.30;;;6.70;99.90;;;;;;6005056;24;20426;-85
2022/02/23 02:42:44;;;;;;;15.03;3.67;;;6.70;99.90;;;;;;6000073;24;20434;-86
2022/02/23 02:45:12;;;;;;;12.90;3.67;;;6.70;99.90;;;;;;5994596;23;20522;-84
2022/02/23 02:47:40;;;;;;;17.87;5.03;;;6.70;99.90;;;;;;5995823;24;20451;-84
2022/02/23 02:50:09;;;;;;;12.80;4.17;;;6.70;99.90;;;;;;6003516;24;20541;-86
2022/02/23 02:52:39;;;;;;;13.40;4.83;;;6.80;99.90;;;;;;6004373;24;20430;-85
2022/02/23 02:55:08;;;;;;;17.57;4.63;;;6.80;99.90;;;;;;5995354;23;20455;-83
2022/02/23 02:57:39;;;;;;;15.73;4.43;;;6.80;99.90;;;;;;5995728;24;20426;-81
2022/02/23 03:00:09;;;;;;;13.63;4.20;;;6.80;99.90;;;;;;6002359;24;20423;-87
2022/02/23 03:02:37;;;;;;;12.40;4.60;;;6.80;99.90;;;;;;5989641;24;20407;-84
2022/02/23 03:05:05;;;;;;;14.27;4.33;;;6.80;99.90;;;;;;5993780;23;20465;-85
2022/02/23 03:07:34;;;;;;;14.60;4.37;;;6.80;99.90;;;;;;6004882;24;20413;-85
2022/02/23 03:10:02;;;;;;;20.13;5.33;;;6.80;99.90;;;;;;5980611;24;20457;-85
2022/02/23 03:12:30;;;;;;;16.83;5.07;;;6.80;99.90;;;;;;6002817;24;20441;-82
2022/02/23 03:14:59;;;;;;;17.50;4.50;;;6.90;99.90;;;;;;5995870;23;20485;-86
2022/02/23 03:17:31;;;;;;;13.67;3.10;;;6.90;99.90;;;;;;6005780;24;20860;-85
2022/02/23 03:19:59;;;;;;;10.90;3.50;;;6.90;99.90;;;;;;5991673;24;20422;-84
2022/02/23 03:22:27;;;;;;;23.13;5.67;;;6.80;99.90;;;;;;6004104;24;20434;-85
2022/02/23 03:24:55;;;;;;;18.43;4.10;;;6.90;99.90;;;;;;5995722;23;20454;-83
2022/02/23 03:27:23;;;;;;;18.83;4.93;;;6.90;99.90;;;;;;6004495;24;20415;-82
2022/02/23 03:29:51;;;;;;;14.47;4.40;;;6.80;99.90;;;;;;5993603;24;20423;-85
2022/02/23 03:32:20;;;;;;;14.50;3.07;;;6.80;99.90;;;;;;6003078;24;20515;-84
2022/02/23 03:34:48;;;;;;;14.50;4.10;;;6.90;99.90;;;;;;5996409;23;20457;-84
2022/02/23 03:37:16;;;;;;;13.43;3.70;;;6.90;99.90;;;;;;5995238;24;20415;-88
2022/02/23 03:39:44;;;;;;;16.00;3.50;;;6.90;99.90;;;;;;5995303;24;20429;-86
2022/02/23 03:42:14;;;;;;;18.80;4.50;;;6.80;99.90;;;;;;5997306;24;20449;-83
2022/02/23 03:44:44;;;;;;;19.47;3.80;;;6.80;99.90;;;;;;5996286;23;20455;-84
2022/02/23 03:47:11;;;;;;;12.30;3.07;;;6.80;99.90;;;;;;5970525;24;20430;-86
2022/02/23 03:49:41;;;;;;;17.07;4.33;;;6.90;99.90;;;;;;5993792;24;20498;-83
2022/02/23 03:52:10;;;;;;;12.87;4.30;;;6.90;99.90;;;;;;6003305;24;20450;-84
2022/02/23 03:54:39;;;;;;;20.27;4.20;;;6.90;99.90;;;;;;5996194;23;20489;-87
2022/02/23 03:57:08;;;;;;;14.67;3.80;;;6.90;99.90;;;;;;6001997;24;20411;-87
2022/02/23 03:59:36;;;;;;;14.70;3.13;;;6.90;99.90;;;;;;5999430;24;20418;-81
2022/02/23 04:02:06;;;;;;;10.40;3.47;;;6.90;99.90;;;;;;6004223;24;20438;-82
2022/02/23 04:04:34;;;;;;;11.63;3.33;;;6.90;99.90;;;;;;5996087;23;20514;-84
2022/02/23 04:07:04;;;;;;;13.17;3.57;;;6.90;99.90;;;;;;6003148;23;20415;-81
2022/02/23 04:09:32;;;;;;;13.27;3.20;;;6.90;99.90;;;;;;5987835;24;20486;-83
2022/02/23 04:12:01;;;;;;;10.07;3.30;;;6.90;99.90;;;;;;6006347;23;20476;-87
2022/02/23 04:14:29;;;;;;;12.67;3.70;;;6.90;99.90;;;;;;5969501;23;20569;-83
2022/02/23 04:16:57;;;;;;;15.10;3.50;;;7.00;99.90;;;;;;5994354;24;20414;-86
2022/02/23 04:19:25;;;;;;;16.77;4.00;;;6.90;99.90;;;;;;5999330;24;20420;-83
2022/02/23 04:21:53;;;;;;;12.10;3.80;;;6.90;99.90;;;;;;6001629;24;20517;-82
2022/02/23 04:24:24;;;;;;;12.50;3.50;;;6.90;99.90;;;;;;5997146;23;20518;-86
2022/02/23 04:26:52;;;;;;;15.33;3.30;;;6.90;99.90;;;;;;5969399;24;20427;-84
2022/02/23 04:29:21;;;;;;;12.70;3.57;;;6.90;99.90;;;;;;5994101;24;20422;-82
2022/02/23 04:31:50;;;;;;;11.70;3.97;;;6.90;99.90;;;;;;6001293;24;20434;-84
2022/02/23 04:34:18;;;;;;;9.70;3.07;;;6.90;99.90;;;;;;5991235;23;20546;-81
2022/02/23 04:36:46;;;;;;;16.60;3.40;;;6.90;99.90;;;;;;5994001;24;20474;-87
2022/02/23 04:39:29;;;;;;;9.87;2.70;;;6.90;99.90;;;;;;6001967;24;20418;-84
2022/02/23 04:41:57;;;;;;;10.53;3.13;;;6.90;99.90;;;;;;6004886;24;20466;-84
2022/02/23 04:44:25;;;;;;;9.07;2.67;;;6.90;99.90;;;;;;5998532;23;20498;-82
2022/02/23 04:46:54;;;;;;;8.43;2.90;;;7.00;99.90;;;;;;6003009;24;20437;-83
2022/02/23 04:49:23;;;;;;;11.60;4.30;;;6.90;99.90;;;;;;6005626;24;20449;-83
2022/02/23 04:51:51;;;;;;;12.03;3.33;;;6.90;99.90;;;;;;6008000;24;20438;-83
2022/02/23 04:54:19;;;;;;;10.40;3.43;;;6.90;99.90;;;;;;5993672;23;20447;-82
2022/02/23 04:56:51;;;;;;;14.00;3.30;;;6.80;99.90;;;;;;6004932;24;20441;-81
2022/02/23 04:59:19;;;;;;;12.00;4.40;;;6.80;99.90;;;;;;6007230;24;20486;-83
2022/02/23 05:01:50;;;;;;;10.00;3.20;;;6.80;99.90;;;;;;6005214;24;20445;-86
2022/02/23 05:04:20;;;;;;;10.97;3.50;;;6.90;99.90;;;;;;5998584;23;20533;-86
2022/02/23 05:06:48;;;;;;;11.10;3.50;;;6.90;99.90;;;;;;6004769;24;20438;-86
2022/02/23 05:09:16;;;;;;;16.33;3.50;;;6.90;99.90;;;;;;6006832;24;20789;-82
2022/02/23 05:11:44;;;;;;;12.67;3.83;;;6.90;99.90;;;;;;6005859;24;20442;-82
2022/02/23 05:14:14;;;;;;;12.20;3.47;;;6.90;99.90;;;;;;5985799;23;20533;-84
2022/02/23 05:16:42;;;;;;;11.33;3.37;;;6.80;99.90;;;;;;6004808;24;20418;-83
2022/02/23 05:19:10;;;;;;;14.67;3.50;;;6.90;99.90;;;;;;6004626;24;20432;-85
2022/02/23 05:21:38;;;;;;;14.10;3.80;;;6.90;99.90;;;;;;5956404;24;20585;-88
2022/02/23 05:24:13;;;;;;;18.30;4.10;;;6.90;99.90;;;;;;5998612;23;20464;-83
2022/02/23 05:26:41;;;;;;;15.73;4.30;;;6.90;99.90;;;;;;6006013;24;20420;-81
2022/02/23 05:29:09;;;;;;;10.57;3.50;;;6.90;99.90;;;;;;6004760;24;20442;-85
2022/02/23 05:31:39;;;;;;;12.30;3.07;;;6.90;99.90;;;;;;6002695;24;20913;-85
2022/02/23 05:34:07;;;;;;;11.20;3.80;;;6.90;99.90;;;;;;5999448;23;20965;-81
2022/02/23 05:36:35;;;;;;;15.13;3.30;;;6.90;99.90;;;;;;6005731;24;20490;-82
2022/02/23 05:39:04;;;;;;;15.17;3.00;;;6.90;99.90;;;;;;6004871;24;20423;-83
2022/02/23 05:41:32;;;;;;;13.73;3.40;;;6.90;99.90;;;;;;5992368;24;20434;-89
2022/02/23 05:44:01;;;;;;;11.97;3.40;;;6.90;99.90;;;;;;5999130;23;20453;-84
2022/02/23 05:46:29;;;;;;;11.67;3.70;;;6.90;99.90;;;;;;6005881;24;20573;-83
2022/02/23 05:48:58;;;;;;;20.53;5.37;;;6.90;99.90;;;;;;6006711;24;20449;-86
2022/02/23 05:51:28;;;;;;;16.30;4.40;;;6.90;99.90;;;;;;6004398;24;20439;-85
2022/02/23 05:53:58;;;;;;;14.57;4.13;;;6.90;99.90;;;;;;5997062;23;20514;-85
2022/02/23 05:56:26;;;;;;;16.33;4.23;;;6.90;99.90;;;;;;6005325;24;20426;-84
2022/02/23 05:58:56;;;;;;;10.37;3.60;;;6.90;99.90;;;;;;5997005;24;20486;-85
2022/02/23 06:01:25;;;;;;;16.10;3.77;;;6.90;99.90;;;;;;5995479;24;20544;-82
2022/02/23 06:03:53;;;;;;;15.90;5.73;;;6.90;99.90;;;;;;5998015;23;20538;-84
2022/02/23 06:06:26;;;;;;;15.73;4.10;;;6.90;99.90;;;;;;6004120;24;20470;-83
2022/02/23 06:08:54;;;;;;;11.70;3.63;;;6.90;99.90;;;;;;6004881;24;20420;-81
2022/02/23 06:11:24;;;;;;;22.57;6.13;;;6.90;99.90;;;;;;5969751;24;20451;-84
2022/02/23 06:13:53;;;;;;;14.50;3.73;;;6.90;99.90;;;;;;5992997;23;20458;-81
2022/02/23 06:16:22;;;;;;;17.70;4.90;;;6.80;99.90;;;;;;5972281;23;20462;-80
2022/02/23 06:18:51;;;;;;;14.07;3.93;;;6.80;99.90;;;;;;6000120;24;20479;-80
2022/02/23 06:21:20;;;;;;;20.40;4.23;;;6.80;99.90;;;;;;5993053;24;20435;-81
2022/02/23 06:23:49;;;;;;;16.10;4.53;;;6.90;99.90;;;;;;5998686;23;20458;-80
2022/02/23 06:26:18;;;;;;;15.30;4.77;;;6.80;99.90;;;;;;6000690;24;20487;-84
2022/02/23 06:28:46;;;;;;;16.10;5.03;;;6.80;99.90;;;;;;5991462;24;20677;-84
2022/02/23 06:31:14;;;;;;;18.80;5.27;;;6.80;99.90;;;;;;5982173;24;20442;-83
2022/02/23 06:33:45;;;;;;;11.67;3.73;;;6.80;99.90;;;;;;5992375;23;20469;-84
2022/02/23 06:36:14;;;;;;;14.60;4.10;;;6.70;99.90;;;;;;5968329;24;20506;-85
2022/02/23 06:38:42;;;;;;;14.77;4.53;;;6.80;99.90;;;;;;6003656;24;20425;-85
2022/02/23 06:41:14;;;;;;;13.87;3.83;;;6.80;99.90;;;;;;5992536;24;21012;-89
2022/02/23 06:43:45;;;;;;;15.30;4.20;;;6.80;99.90;;;;;;5997807;23;20453;-87
2022/02/23 06:46:15;;;;;;;15.10;4.33;;;6.70;99.90;;;;;;5998222;23;20419;-82
2022/02/23 06:48:47;;;;;;;16.83;4.27;;;6.70;99.90;;;;;;5993162;24;20430;-81
2022/02/23 06:51:18;;;;;;;23.87;4.00;;;6.70;99.90;;;;;;6000515;24;20505;-82
2022/02/23 06:53:47;;;;;;;15.80;4.30;;;6.70;99.90;;;;;;5966688;24;20454;-86
2022/02/23 06:56:18;;;;;;;14.40;3.77;;;6.70;99.90;;;;;;5969884;24;20471;-85
2022/02/23 06:58:47;;;;;;;14.60;3.83;;;6.70;99.90;;;;;;5994359;24;20449;-87
2022/02/23 07:01:17;;;;;;;20.27;4.50;;;6.70;99.90;;;;;;6001402;24;20419;-87
2022/02/23 07:03:46;;;;;;;19.40;4.60;;;6.70;99.90;;;;;;6001866;23;20492;-88
2022/02/23 07:06:15;;;;;;;16.70;4.63;;;6.60;99.90;;;;;;5972168;23;20430;-85
2022/02/23 07:08:46;;;;;;;17.53;4.50;;;6.70;99.90;;;;;;6003449;24;20449;-83
2022/02/23 07:11:14;;;;;;;15.57;4.20;;;6.70;99.90;;;;;;5969523;24;20485;-83
2022/02/23 07:13:44;;;;;;;15.57;4.33;;;6.70;99.90;;;;;;5964034;24;20461;-83
2022/02/23 07:16:15;;;;;;;12.27;3.73;;;6.70;99.90;;;;;;6000973;24;20713;-86
2022/02/23 07:18:43;;;;;;;18.17;4.73;;;6.70;99.90;;;;;;5999510;24;20447;-85
2022/02/23 07:21:11;;;;;;;17.70;3.90;;;6.80;99.90;;;;;;5992065;24;20438;-85
2022/02/23 07:23:39;;;;;;;20.00;4.97;;;6.70;99.90;;;;;;5998218;23;20488;-84
2022/02/23 07:26:07;;;;;;;15.43;4.37;;;6.70;99.90;;;;;;6002421;24;20453;-84
2022/02/23 07:28:40;;;;;;;13.80;3.50;;;6.70;99.90;;;;;;6002213;24;20882;-86
2022/02/23 07:31:13;;;;;;;17.60;4.10;;;6.70;99.90;;;;;;6003346;24;20440;-84
2022/02/23 07:33:42;;;;;;;11.77;3.60;;;6.80;99.90;;;;;;5998430;23;20451;-85
2022/02/23 07:36:10;;;;;;;14.70;4.07;;;6.80;99.90;;;;;;6005818;24;20425;-86
2022/02/23 07:38:42;;;;;;;10.80;4.00;;;6.80;99.90;;;;;;5994748;24;20414;-83
2022/02/23 07:41:21;;;;;;;12.33;4.67;;;6.80;99.90;;;;;;6004624;24;20434;-85
2022/02/23 07:44:12;;;;;;;20.57;4.77;;;6.80;99.90;;;;;;5988878;23;20545;-87
2022/02/23 07:46:44;;;;;;;15.10;4.00;;;6.80;99.90;;;;;;6004115;24;20425;-89
2022/02/23 07:49:16;;;;;;;16.30;4.17;;;6.80;99.90;;;;;;6004970;24;20493;-87
2022/02/23 07:51:51;;;;;;;16.83;4.17;;;6.90;99.90;;;;;;6000188;24;20494;-90
2022/02/23 07:54:19;;;;;;;16.23;5.63;;;6.90;99.90;;;;;;5993769;23;20542;-83
2022/02/23 07:56:48;;;;;;;11.20;3.83;;;6.90;99.90;;;;;;5992523;24;20509;-83
2022/02/23 07:59:19;;;;;;;11.63;3.90;;;6.90;99.90;;;;;;6003258;24;20432;-87
2022/02/23 08:01:49;;;;;;;12.73;4.43;;;6.90;99.90;;;;;;6003437;24;20465;-85
2022/02/23 08:04:20;;;;;;;15.50;5.57;;;6.90;99.90;;;;;;5990297;23;20462;-83
2022/02/23 08:06:48;;;;;;;14.33;3.63;;;6.90;99.90;;;;;;6003879;24;20418;-85
2022/02/23 08:09:18;;;;;;;13.00;3.87;;;7.00;99.90;;;;;;6003891;24;20526;-89
2022/02/23 08:11:51;;;;;;;13.30;3.00;;;7.00;99.90;;;;;;6002495;24;20509;-85
2022/02/23 08:14:20;;;;;;;17.60;4.83;;;7.00;99.90;;;;;;5995967;23;20453;-87
2022/02/23 08:19:44;;;;;;;14.33;4.30;;;7.00;99.90;;;;;;5959236;24;20461;-85
2022/02/23 08:22:15;;;;;;;16.87;4.03;;;7.00;99.90;;;;;;6001450;24;20497;-86
2022/02/23 08:24:44;;;;;;;13.53;4.37;;;7.00;99.90;;;;;;5988118;23;20478;-84
2022/02/23 08:27:14;;;;;;;12.73;4.90;;;7.00;99.90;;;;;;6004541;24;20422;-84
2022/02/23 08:29:42;;;;;;;14.27;3.70;;;7.00;99.90;;;;;;6009688;24;20504;-84
2022/02/23 08:32:14;;;;;;;12.43;3.67;;;7.00;99.90;;;;;;6008860;24;20438;-86
2022/02/23 08:34:45;;;;;;;10.83;3.57;;;7.00;99.90;;;;;;5999096;23;20458;-82
2022/02/23 08:37:14;;;;;;;13.17;4.40;;;7.10;99.90;;;;;;6005563;24;20438;-84
2022/02/23 08:39:43;;;;;;;14.07;4.97;;;7.10;99.90;;;;;;6007629;24;20429;-85
2022/02/23 08:42:13;;;;;;;14.10;3.40;;;7.10;99.90;;;;;;5998857;24;20552;-86
2022/02/23 08:44:42;;;;;;;12.33;3.73;;;7.20;99.90;;;;;;5963912;24;20526;-87
2022/02/23 08:47:12;;;;;;;17.40;4.20;;;7.20;99.90;;;;;;5972634;24;20446;-85
2022/02/23 08:49:40;;;;;;;11.63;3.30;;;7.20;99.90;;;;;;6006374;24;20478;-88
2022/02/23 08:52:09;;;;;;;13.13;4.20;;;7.20;99.90;;;;;;6006871;24;20431;-85
2022/02/23 08:54:38;;;;;;;15.90;4.10;;;7.20;99.90;;;;;;5989667;23;20921;-86
2022/02/23 08:57:07;;;;;;;15.97;4.23;;;7.20;99.90;;;;;;6006650;24;20434;-88
2022/02/23 08:59:35;;;;;;;9.90;3.60;;;7.20;99.90;;;;;;6005542;24;20532;-84
2022/02/23 09:02:06;;;;;;;15.07;4.33;;;7.20;99.90;;;;;;6006244;24;20435;-83
2022/02/23 09:04:39;;;;;;;10.33;4.00;;;7.30;99.90;;;;;;5996959;23;20485;-85
2022/02/23 09:07:10;;;;;;;17.23;4.60;;;7.40;99.90;;;;;;6006593;24;20448;-87
2022/02/23 09:09:40;;;;;;;13.60;3.87;;;7.40;99.90;;;;;;6008126;24;20422;-86
2022/02/23 09:12:09;;;;;;;13.83;4.90;;;7.40;99.90;;;;;;6006831;24;20438;-85
2022/02/23 09:14:42;;;;;;;14.10;4.10;;;7.40;99.90;;;;;;5991116;23;20482;-85
2022/02/23 09:17:12;;;;;;;14.53;5.30;;;7.50;99.90;;;;;;6007379;24;20466;-85
2022/02/23 09:19:44;;;;;;;18.03;4.10;;;7.40;99.90;;;;;;6006999;24;20418;-86
2022/02/23 09:22:13;;;;;;;16.67;4.90;;;7.40;99.90;;;;;;6008919;24;20527;-84
2022/02/23 09:24:41;;;;;;;11.73;4.20;;;7.50;99.90;;;;;;5998521;23;20447;-85
2022/02/23 09:27:12;;;;;;;14.23;4.30;;;7.50;99.90;;;;;;6006074;24;20463;-87
2022/02/23 09:29:44;;;;;;;13.70;4.07;;;7.50;99.90;;;;;;6007085;24;20478;-83
2022/02/23 09:32:15;;;;;;;12.37;4.13;;;7.60;99.90;;;;;;6006203;24;20504;-88
2022/02/23 09:34:45;;;;;;;12.63;4.20;;;7.60;99.90;;;;;;5994017;23;20527;-88
2022/02/23 09:37:16;;;;;;;13.40;4.23;;;7.60;99.90;;;;;;6003930;24;20395;-85
2022/02/23 09:39:48;;;;;;;12.97;4.20;;;7.60;99.90;;;;;;6007272;24;20433;-86
2022/02/23 09:42:17;;;;;;;13.13;5.00;;;7.60;99.90;;;;;;6007419;24;20445;-86
2022/02/23 09:44:45;;;;;;;18.33;4.57;;;7.60;99.90;;;;;;5999004;23;20477;-84
2022/02/23 09:47:34;;;;;;;14.03;4.10;;;7.60;99.90;;;;;;6008143;24;20420;-83
2022/02/23 09:50:10;;;;;;;9.30;3.80;;;7.70;99.90;;;;;;6005650;24;20489;-87
2022/02/23 09:52:38;;;;;;;12.40;3.27;;;7.80;99.90;;;;;;6007029;24;20473;-87
2022/02/23 09:55:09;;;;;;;12.80;3.80;;;7.80;99.90;;;;;;5981462;23;20842;-87
2022/02/23 09:57:38;;;;;;;17.10;4.40;;;7.90;99.90;;;;;;6001627;24;20415;-86
2022/02/23 10:00:13;;;;;;;15.27;4.80;;;8.00;99.90;;;;;;6004478;24;20406;-84
2022/02/23 10:02:41;;;;;;;9.07;3.60;;;8.10;99.90;;;;;;5996132;24;20419;-84
2022/02/23 10:05:12;;;;;;;13.13;3.80;;;8.10;99.90;;;;;;5994660;23;20451;-85
2022/02/23 10:07:40;;;;;;;11.50;3.83;;;8.10;99.90;;;;;;6004974;24;20399;-86
2022/02/23 10:10:11;;;;;;;12.50;4.17;;;8.10;99.90;;;;;;6004416;24;20411;-88
2022/02/23 10:12:41;;;;;;;11.67;4.47;;;8.20;99.90;;;;;;5971982;24;20482;-84
2022/02/23 10:15:12;;;;;;;9.40;3.20;;;8.30;99.90;;;;;;5993496;23;20461;-84
2022/02/23 10:17:43;;;;;;;11.27;3.53;;;8.30;99.90;;;;;;6005656;24;20438;-82
2022/02/23 10:20:25;;;;;;;13.67;3.80;;;8.30;99.90;;;;;;6006478;24;21048;-84
2022/02/23 10:22:57;;;;;;;12.03;3.40;;;8.30;99.90;;;;;;6002997;23;20418;-83
2022/02/23 10:25:27;;;;;;;14.03;4.00;;;8.30;99.90;;;;;;6006483;24;20415;-82
2022/02/23 10:28:09;;;;;;;10.70;3.73;;;8.40;99.90;;;;;;6006613;24;20506;-85
2022/02/23 10:30:45;;;;;;;13.10;4.40;;;8.50;99.90;;;;;;5997855;24;20473;-84
2022/02/23 10:33:15;;;;;;;10.87;3.07;;;8.60;99.90;;;;;;6001539;23;20460;-85
2022/02/23 10:36:02;;;;;;;10.70;3.60;;;8.70;99.90;;;;;;6003505;24;20478;-85
2022/02/23 10:38:32;;;;;;;10.73;3.47;;;8.70;99.90;;;;;;6006136;24;20599;-81
2022/02/23 10:41:02;;;;;;;10.70;3.37;;;8.80;99.90;;;;;;6000159;24;20448;-84
2022/02/23 10:43:34;;;;;;;10.40;3.83;;;8.80;99.90;;;;;;5995493;23;20454;-84
2022/02/23 10:46:08;;;;;;;10.37;3.33;;;8.80;99.90;;;;;;6002917;24;20434;-83
2022/02/23 10:48:39;;;;;;;8.70;3.40;;;8.90;99.90;;;;;;6002075;24;20418;-84
2022/02/23 10:51:10;;;;;;;7.93;3.00;;;9.00;99.90;;;;;;5999223;24;20486;-84
2022/02/23 10:53:39;;;;;;;13.03;3.00;;;9.00;99.90;;;;;;6000875;23;20515;-85
2022/02/23 10:56:25;;;;;;;13.13;3.70;;;9.10;99.90;;;;;;6003779;24;20491;-85
2022/02/23 10:59:04;;;;;;;6.90;3.03;;;9.10;99.90;;;;;;6002102;24;20430;-82
2022/02/23 11:01:36;;;;;;;7.03;3.00;;;9.20;99.90;;;;;;5995008;24;20587;-84
2022/02/23 11:04:05;;;;;;;9.67;3.53;;;9.20;99.90;;;;;;5998041;23;20531;-85
2022/02/23 11:06:35;;;;;;;9.47;2.70;;;9.20;99.90;;;;;;5969970;24;20751;-88
2022/02/23 11:09:05;;;;;;;9.60;2.83;;;9.30;99.90;;;;;;6003462;24;20419;-86
2022/02/23 11:11:33;;;;;;;6.83;3.10;;;9.20;99.90;;;;;;6004818;24;20434;-86
2022/02/23 11:14:03;;;;;;;10.87;3.03;;;9.20;99.90;;;;;;5999652;23;20509;-83
2022/02/23 11:16:31;;;;;;;8.23;2.50;;;9.30;99.90;;;;;;6002353;24;20430;-84
2022/02/23 11:19:00;;;;;;;8.13;2.93;;;9.30;99.90;;;;;;5994656;24;20499;-84
2022/02/23 11:21:32;;;;;;;9.53;2.73;;;9.40;99.90;;;;;;6003157;24;20534;-83
2022/02/23 11:24:04;;;;;;;9.20;2.43;;;9.60;99.90;;;;;;5988479;23;20527;-86
2022/02/23 11:26:35;;;;;;;8.23;2.93;;;9.70;99.90;;;;;;5999348;24;20576;-87
2022/02/23 11:29:17;;;;;;;4.20;2.93;;;9.70;99.90;;;;;;6004630;24;20421;-87
2022/02/23 11:31:50;;;;;;;9.83;2.33;;;9.80;99.90;;;;;;5969365;24;20493;-82
2022/02/23 11:34:25;;;;;;;5.27;2.40;;;9.90;99.90;;;;;;5993988;23;20464;-85
2022/02/23 11:36:58;;;;;;;6.90;2.40;;;10.00;99.90;;;;;;5967447;24;20442;-84
2022/02/23 11:39:31;;;;;;;6.90;2.13;;;10.00;99.90;;;;;;6001535;24;20426;-84
2022/02/23 11:42:03;;;;;;;5.33;2.00;;;10.20;99.90;;;;;;5996551;24;20548;-86
2022/02/23 11:44:34;;;;;;;9.13;3.27;;;10.20;99.90;;;;;;5993069;23;20450;-84
2022/02/23 11:47:11;;;;;;;9.37;4.07;;;10.30;99.90;;;;;;6002295;24;20471;-86
2022/02/23 11:53:31;;;;;;;6.17;2.30;;;10.50;99.90;;;;;;5996591;23;20395;-87
2022/02/23 11:56:15;;;;;;;5.00;2.10;;;10.50;99.90;;;;;;5968696;24;20434;-85
2022/02/23 12:01:48;;;;;;;5.30;1.90;;;10.40;99.90;;;;;;5997743;24;20438;-83
2022/02/23 12:04:18;;;;;;;3.43;2.10;;;10.40;99.90;;;;;;5995547;23;20451;-87
2022/02/23 12:07:11;;;;;;;3.90;2.30;;;10.60;99.90;;;;;;6001254;24;20395;-82
2022/02/23 12:10:09;;;;;;;6.00;2.33;;;10.80;99.90;;;;;;5999365;24;20419;-83
2022/02/23 12:12:57;;;;;;;9.23;2.73;;;11.10;99.90;;;;;;5999912;24;20419;-84
2022/02/23 12:15:31;;;;;;;3.17;1.47;;;11.20;99.90;;;;;;5984583;24;20533;-83
2022/02/23 12:18:00;;;;;;;5.57;1.90;;;12.00;99.90;;;;;;5990482;24;20490;-84
2022/02/23 12:20:48;;;;;;;6.50;1.93;;;13.80;99.90;;;;;;5983785;24;20446;-82
2022/02/23 12:23:40;;;;;;;5.20;1.60;;;15.90;99.90;;;;;;5983594;23;20454;-79
2022/02/23 12:26:25;;;;;;;5.17;1.83;;;19.00;99.90;;;;;;5978395;24;20442;-82
2022/02/23 12:29:01;;;;;;;3.60;1.60;;;20.40;95.30;;;;;;5973731;24;20415;-80
2022/02/23 12:31:32;;;;;;;3.17;1.73;;;22.70;90.10;;;;;;5986980;24;20426;-79
2022/02/23 12:34:04;;;;;;;3.53;1.90;;;24.20;78.30;;;;;;5980123;23;20454;-79
2022/02/23 12:36:56;;;;;;;3.83;1.43;;;24.00;75.50;;;;;;5945094;24;20490;-81
2022/02/23 12:39:26;;;;;;;3.50;2.03;;;24.20;73.20;;;;;;5990578;24;20491;-81
2022/02/23 12:41:57;;;;;;;2.60;1.60;;;24.80;72.50;;;;;;5991522;24;20442;-82
2022/02/23 12:44:30;;;;;;;2.87;1.60;;;25.30;70.60;;;;;;5954980;24;20446;-85
2022/02/23 12:47:04;;;;;;;4.23;1.70;;;26.10;68.00;;;;;;5988012;24;20441;-78
2022/02/23 12:49:32;;;;;;;7.90;6.23;;;25.90;66.40;;;;;;5958583;24;20431;-78
2022/02/23 12:52:02;;;;;;;4.37;2.70;;;25.10;65.80;;;;;;5967567;24;20762;-80
2022/02/23 12:54:32;;;;;;;3.87;3.00;;;24.90;65.70;;;;;;5969083;23;20483;-79
2022/02/23 12:57:05;;;;;;;2.90;2.50;;;25.80;67.50;;;;;;5951633;24;20427;-80
2022/02/23 12:59:36;;;;;;;4.20;1.90;;;27.00;64.80;;;;;;5975896;24;20438;-77
2022/02/23 13:02:08;;;;;;;2.20;1.70;;;27.80;61.00;;;;;;5981864;24;20490;-80
2022/02/23 13:04:38;;;;;;;2.60;1.90;;;27.60;59.20;;;;;;5967273;23;20458;-80
2022/02/23 13:07:10;;;;;;;1.97;1.77;;;25.40;59.20;;;;;;5946983;24;20489;-80
2022/02/23 13:09:40;;;;;;;2.20;1.60;;;24.80;61.00;;;;;;5974656;24;20422;-81
2022/02/23 13:12:10;;;;;;;2.30;1.27;;;25.40;62.70;;;;;;5983074;24;20503;-81
2022/02/23 13:14:43;;;;;;;2.97;1.50;;;25.30;62.50;;;;;;5976130;23;20450;-82
2022/02/23 13:17:13;;;;;;;2.93;1.50;;;25.20;61.00;;;;;;5991594;24;20437;-82
2022/02/23 13:19:43;;;;;;;4.10;2.10;;;24.90;60.80;;;;;;5990446;24;20570;-80
2022/02/23 13:22:14;;;;;;;2.20;1.53;;;22.70;61.60;;;;;;5990490;24;20436;-83